KDLH/DLH METAR and TAF weather

Enter ICAO airport designator
Station Type Date Time Source
KDLH METAR 2019/08/22 14:55 UTC NOAA

KDLH 221455Z 12005KT 10SM BKN070 17/11 A3013 RMK AO2 SLP204 T01670111 53012


Station Type Date Time Source
KDLH Decoded METAR 2019/08/22 14:55 UTC NOAA

Station name not available
Aug 22, 2019 - 10:55 AM EDT / 2019.08.22 1455 UTC
Wind: from the ESE (120 degrees) at 6 MPH (5 KT):0
Visibility: 10 mile(s):0
Sky conditions: mostly cloudy
Temperature: 62.1 F (16.7 C)
Dew Point: 52.0 F (11.1 C)
Relative Humidity: 69%
Pressure (altimeter): 30.13 in. Hg (1020 hPa)
Pressure tendency: 0.04 inches (1.2 hPa) higher than three hours ago
ob: KDLH 221455Z 12005KT 10SM BKN070 17/11 A3013 RMK AO2 SLP204 T01670111 53012
cycle: 15

Station Type Date Time Source
KDLH TAF 2019/08/22 12:33 UTC NOAA

TAF KDLH 221131Z 2212/2312 VRB03KT P6SM OVC060
FM221600 07007KT P6SM OVC060
FM230200 VRB04KT P6SM FEW250

Example: see airport list